sensor_id;sensor_type;location;lat;lon;timestamp;P1;durP1;ratioP1;P2;durP2;ratioP2
18100;SDS011;9177;49.156;8.142;2023-05-29T00:01:05;3.17;;;2.88;;
18100;SDS011;9177;49.156;8.142;2023-05-29T00:03:33;3.17;;;2.72;;
18100;SDS011;9177;49.156;8.142;2023-05-29T00:06:01;3.53;;;3.20;;
18100;SDS011;9177;49.156;8.142;2023-05-29T00:08:28;3.30;;;3.00;;
18100;SDS011;9177;49.156;8.142;2023-05-29T00:10:55;3.28;;;2.97;;
18100;SDS011;9177;49.156;8.142;2023-05-29T00:13:22;3.20;;;2.90;;
18100;SDS011;9177;49.156;8.142;2023-05-29T00:15:51;3.50;;;2.90;;
18100;SDS011;9177;49.156;8.142;2023-05-29T00:18:18;3.03;;;2.72;;
18100;SDS011;9177;49.156;8.142;2023-05-29T00:20:44;3.10;;;2.80;;
18100;SDS011;9177;49.156;8.142;2023-05-29T00:23:11;2.90;;;2.70;;
18100;SDS011;9177;49.156;8.142;2023-05-29T00:25:38;3.33;;;3.03;;
18100;SDS011;9177;49.156;8.142;2023-05-29T00:28:06;2.83;;;2.63;;
18100;SDS011;9177;49.156;8.142;2023-05-29T00:30:33;3.42;;;3.13;;
18100;SDS011;9177;49.156;8.142;2023-05-29T00:33:02;2.90;;;2.67;;
18100;SDS011;9177;49.156;8.142;2023-05-29T00:35:32;3.20;;;2.90;;
18100;SDS011;9177;49.156;8.142;2023-05-29T00:37:58;3.08;;;2.72;;
18100;SDS011;9177;49.156;8.142;2023-05-29T00:40:25;2.90;;;2.60;;
18100;SDS011;9177;49.156;8.142;2023-05-29T00:42:52;2.72;;;2.35;;
18100;SDS011;9177;49.156;8.142;2023-05-29T00:45:19;3.00;;;2.75;;
18100;SDS011;9177;49.156;8.142;2023-05-29T00:47:46;3.00;;;2.60;;
18100;SDS011;9177;49.156;8.142;2023-05-29T00:50:14;3.15;;;2.90;;
18100;SDS011;9177;49.156;8.142;2023-05-29T00:52:41;3.10;;;2.80;;
18100;SDS011;9177;49.156;8.142;2023-05-29T00:55:10;3.08;;;2.78;;
18100;SDS011;9177;49.156;8.142;2023-05-29T00:57:38;2.78;;;2.58;;
18100;SDS011;9177;49.156;8.142;2023-05-29T01:00:06;3.80;;;2.58;;
18100;SDS011;9177;49.156;8.142;2023-05-29T01:02:38;2.90;;;2.70;;
18100;SDS011;9177;49.156;8.142;2023-05-29T01:05:09;2.72;;;2.40;;
18100;SDS011;9177;49.156;8.142;2023-05-29T01:07:38;2.35;;;2.15;;
18100;SDS011;9177;49.156;8.142;2023-05-29T01:10:05;3.03;;;2.75;;
18100;SDS011;9177;49.156;8.142;2023-05-29T01:12:36;2.88;;;2.58;;
18100;SDS011;9177;49.156;8.142;2023-05-29T01:15:13;3.47;;;2.70;;
18100;SDS011;9177;49.156;8.142;2023-05-29T01:17:47;2.63;;;2.42;;
18100;SDS011;9177;49.156;8.142;2023-05-29T01:20:27;2.95;;;2.72;;
18100;SDS011;9177;49.156;8.142;2023-05-29T01:23:12;2.92;;;2.72;;
18100;SDS011;9177;49.156;8.142;2023-05-29T01:25:58;2.95;;;2.65;;
18100;SDS011;9177;49.156;8.142;2023-05-29T01:28:41;2.97;;;2.70;;
18100;SDS011;9177;49.156;8.142;2023-05-29T01:31:12;2.50;;;2.30;;
18100;SDS011;9177;49.156;8.142;2023-05-29T01:33:40;2.72;;;2.53;;
18100;SDS011;9177;49.156;8.142;2023-05-29T01:36:07;2.65;;;2.45;;
18100;SDS011;9177;49.156;8.142;2023-05-29T01:38:36;2.53;;;2.33;;
18100;SDS011;9177;49.156;8.142;2023-05-29T01:41:02;2.60;;;2.38;;
18100;SDS011;9177;49.156;8.142;2023-05-29T01:43:30;2.50;;;2.30;;
18100;SDS011;9177;49.156;8.142;2023-05-29T01:45:58;3.22;;;2.92;;
18100;SDS011;9177;49.156;8.142;2023-05-29T01:48:26;2.60;;;2.40;;
18100;SDS011;9177;49.156;8.142;2023-05-29T01:50:54;2.65;;;2.45;;
18100;SDS011;9177;49.156;8.142;2023-05-29T01:53:21;2.90;;;2.53;;
18100;SDS011;9177;49.156;8.142;2023-05-29T01:55:48;2.53;;;2.33;;
18100;SDS011;9177;49.156;8.142;2023-05-29T01:58:16;3.28;;;2.92;;
18100;SDS011;9177;49.156;8.142;2023-05-29T02:00:44;2.47;;;2.28;;
18100;SDS011;9177;49.156;8.142;2023-05-29T02:03:13;2.40;;;2.20;;
18100;SDS011;9177;49.156;8.142;2023-05-29T02:05:39;2.17;;;2.00;;
18100;SDS011;9177;49.156;8.142;2023-05-29T02:08:06;2.65;;;2.45;;
18100;SDS011;9177;49.156;8.142;2023-05-29T02:10:33;2.78;;;2.50;;
18100;SDS011;9177;49.156;8.142;2023-05-29T02:13:00;3.15;;;2.40;;
18100;SDS011;9177;49.156;8.142;2023-05-29T02:15:27;2.60;;;2.40;;
18100;SDS011;9177;49.156;8.142;2023-05-29T02:17:53;3.60;;;2.70;;
18100;SDS011;9177;49.156;8.142;2023-05-29T02:20:21;3.85;;;2.60;;
18100;SDS011;9177;49.156;8.142;2023-05-29T02:22:48;2.78;;;2.42;;
18100;SDS011;9177;49.156;8.142;2023-05-29T02:25:15;2.58;;;2.38;;
18100;SDS011;9177;49.156;8.142;2023-05-29T02:27:42;2.65;;;2.45;;
18100;SDS011;9177;49.156;8.142;2023-05-29T02:30:09;2.60;;;2.40;;
18100;SDS011;9177;49.156;8.142;2023-05-29T02:32:36;2.63;;;2.42;;
18100;SDS011;9177;49.156;8.142;2023-05-29T02:35:03;2.50;;;2.30;;
18100;SDS011;9177;49.156;8.142;2023-05-29T02:37:32;2.50;;;2.30;;
18100;SDS011;9177;49.156;8.142;2023-05-29T02:39:58;2.55;;;2.30;;
18100;SDS011;9177;49.156;8.142;2023-05-29T02:42:25;2.50;;;2.30;;
18100;SDS011;9177;49.156;8.142;2023-05-29T02:44:52;2.70;;;2.50;;
18100;SDS011;9177;49.156;8.142;2023-05-29T02:47:19;2.70;;;2.50;;
18100;SDS011;9177;49.156;8.142;2023-05-29T02:49:46;2.42;;;2.22;;
18100;SDS011;9177;49.156;8.142;2023-05-29T02:52:13;2.78;;;2.50;;
18100;SDS011;9177;49.156;8.142;2023-05-29T02:54:41;2.97;;;2.60;;
18100;SDS011;9177;49.156;8.142;2023-05-29T02:57:08;2.65;;;2.45;;
18100;SDS011;9177;49.156;8.142;2023-05-29T02:59:34;2.40;;;2.20;;
18100;SDS011;9177;49.156;8.142;2023-05-29T03:02:02;2.50;;;2.30;;
18100;SDS011;9177;49.156;8.142;2023-05-29T03:04:29;2.78;;;2.50;;
18100;SDS011;9177;49.156;8.142;2023-05-29T03:06:56;2.42;;;2.22;;
18100;SDS011;9177;49.156;8.142;2023-05-29T03:09:23;3.17;;;2.67;;
18100;SDS011;9177;49.156;8.142;2023-05-29T03:11:51;2.53;;;2.33;;
18100;SDS011;9177;49.156;8.142;2023-05-29T03:14:18;2.95;;;2.50;;
18100;SDS011;9177;49.156;8.142;2023-05-29T03:16:46;2.80;;;2.50;;
18100;SDS011;9177;49.156;8.142;2023-05-29T03:19:14;2.50;;;2.30;;
18100;SDS011;9177;49.156;8.142;2023-05-29T03:21:41;2.65;;;2.42;;
18100;SDS011;9177;49.156;8.142;2023-05-29T03:24:08;2.58;;;2.38;;
18100;SDS011;9177;49.156;8.142;2023-05-29T03:26:35;2.80;;;2.50;;
18100;SDS011;9177;49.156;8.142;2023-05-29T03:29:03;2.45;;;2.25;;
18100;SDS011;9177;49.156;8.142;2023-05-29T03:31:30;2.42;;;2.22;;
18100;SDS011;9177;49.156;8.142;2023-05-29T03:33:57;2.40;;;2.20;;
18100;SDS011;9177;49.156;8.142;2023-05-29T03:36:25;2.67;;;2.47;;
18100;SDS011;9177;49.156;8.142;2023-05-29T03:38:52;2.50;;;2.30;;
18100;SDS011;9177;49.156;8.142;2023-05-29T03:41:18;2.50;;;2.30;;
18100;SDS011;9177;49.156;8.142;2023-05-29T03:43:45;2.70;;;2.50;;
18100;SDS011;9177;49.156;8.142;2023-05-29T03:46:13;2.10;;;1.90;;
18100;SDS011;9177;49.156;8.142;2023-05-29T03:48:40;2.63;;;2.38;;
18100;SDS011;9177;49.156;8.142;2023-05-29T03:51:07;2.83;;;2.30;;
18100;SDS011;9177;49.156;8.142;2023-05-29T03:53:35;2.63;;;2.25;;
18100;SDS011;9177;49.156;8.142;2023-05-29T03:56:02;2.20;;;2.00;;
18100;SDS011;9177;49.156;8.142;2023-05-29T03:58:28;2.45;;;2.25;;
18100;SDS011;9177;49.156;8.142;2023-05-29T04:00:55;2.30;;;2.10;;
18100;SDS011;9177;49.156;8.142;2023-05-29T04:03:23;2.90;;;2.30;;
18100;SDS011;9177;49.156;8.142;2023-05-29T04:05:54;2.78;;;2.40;;
18100;SDS011;9177;49.156;8.142;2023-05-29T04:08:21;2.47;;;2.28;;
18100;SDS011;9177;49.156;8.142;2023-05-29T04:10:48;2.78;;;2.30;;
18100;SDS011;9177;49.156;8.142;2023-05-29T04:13:18;2.63;;;2.42;;
18100;SDS011;9177;49.156;8.142;2023-05-29T04:15:45;2.25;;;1.98;;
18100;SDS011;9177;49.156;8.142;2023-05-29T04:18:12;4.75;;;3.03;;
18100;SDS011;9177;49.156;8.142;2023-05-29T04:20:41;2.60;;;2.28;;
18100;SDS011;9177;49.156;8.142;2023-05-29T04:23:10;2.20;;;2.00;;
18100;SDS011;9177;49.156;8.142;2023-05-29T04:25:37;2.15;;;2.05;;
18100;SDS011;9177;49.156;8.142;2023-05-29T04:28:04;2.50;;;2.30;;
18100;SDS011;9177;49.156;8.142;2023-05-29T04:30:31;2.58;;;2.38;;
18100;SDS011;9177;49.156;8.142;2023-05-29T04:32:58;2.30;;;2.10;;
18100;SDS011;9177;49.156;8.142;2023-05-29T04:35:25;3.22;;;2.15;;
18100;SDS011;9177;49.156;8.142;2023-05-29T04:37:54;2.30;;;2.10;;
18100;SDS011;9177;49.156;8.142;2023-05-29T04:40:22;2.10;;;2.00;;
18100;SDS011;9177;49.156;8.142;2023-05-29T04:42:49;2.42;;;2.22;;
18100;SDS011;9177;49.156;8.142;2023-05-29T04:45:19;2.70;;;2.50;;
18100;SDS011;9177;49.156;8.142;2023-05-29T04:47:47;2.22;;;2.03;;
18100;SDS011;9177;49.156;8.142;2023-05-29T04:50:14;2.17;;;1.98;;
18100;SDS011;9177;49.156;8.142;2023-05-29T04:52:43;2.42;;;2.20;;
18100;SDS011;9177;49.156;8.142;2023-05-29T04:55:13;2.55;;;2.35;;
18100;SDS011;9177;49.156;8.142;2023-05-29T04:57:41;2.50;;;2.30;;
18100;SDS011;9177;49.156;8.142;2023-05-29T05:00:08;2.40;;;2.03;;
18100;SDS011;9177;49.156;8.142;2023-05-29T05:02:38;2.47;;;2.17;;
18100;SDS011;9177;49.156;8.142;2023-05-29T05:05:05;2.78;;;2.10;;
18100;SDS011;9177;49.156;8.142;2023-05-29T05:07:33;2.40;;;2.20;;
18100;SDS011;9177;49.156;8.142;2023-05-29T05:10:00;2.22;;;2.03;;
18100;SDS011;9177;49.156;8.142;2023-05-29T05:12:28;2.15;;;1.98;;
18100;SDS011;9177;49.156;8.142;2023-05-29T05:14:55;3.08;;;2.13;;
18100;SDS011;9177;49.156;8.142;2023-05-29T05:17:22;2.38;;;2.17;;
18100;SDS011;9177;49.156;8.142;2023-05-29T05:19:49;2.50;;;2.28;;
18100;SDS011;9177;49.156;8.142;2023-05-29T05:22:17;2.10;;;2.00;;
18100;SDS011;9177;49.156;8.142;2023-05-29T05:24:44;2.30;;;2.10;;
18100;SDS011;9177;49.156;8.142;2023-05-29T05:27:10;2.42;;;2.22;;
18100;SDS011;9177;49.156;8.142;2023-05-29T05:29:39;2.10;;;1.90;;
18100;SDS011;9177;49.156;8.142;2023-05-29T05:32:06;2.42;;;2.15;;
18100;SDS011;9177;49.156;8.142;2023-05-29T05:34:32;2.30;;;2.10;;
18100;SDS011;9177;49.156;8.142;2023-05-29T05:36:59;2.22;;;2.03;;
18100;SDS011;9177;49.156;8.142;2023-05-29T05:39:27;2.30;;;2.10;;
18100;SDS011;9177;49.156;8.142;2023-05-29T05:41:54;2.30;;;2.10;;
18100;SDS011;9177;49.156;8.142;2023-05-29T05:44:21;2.33;;;2.13;;
18100;SDS011;9177;49.156;8.142;2023-05-29T05:46:49;1.92;;;1.83;;
18100;SDS011;9177;49.156;8.142;2023-05-29T05:49:16;2.30;;;2.10;;
18100;SDS011;9177;49.156;8.142;2023-05-29T05:51:43;2.50;;;2.30;;
18100;SDS011;9177;49.156;8.142;2023-05-29T05:54:09;2.42;;;2.22;;
18100;SDS011;9177;49.156;8.142;2023-05-29T05:56:37;2.25;;;2.05;;
18100;SDS011;9177;49.156;8.142;2023-05-29T05:59:04;2.40;;;2.20;;
18100;SDS011;9177;49.156;8.142;2023-05-29T06:01:30;2.20;;;2.00;;
18100;SDS011;9177;49.156;8.142;2023-05-29T06:03:59;2.50;;;2.30;;
18100;SDS011;9177;49.156;8.142;2023-05-29T06:06:26;1.80;;;1.70;;
18100;SDS011;9177;49.156;8.142;2023-05-29T06:08:53;1.92;;;1.83;;
18100;SDS011;9177;49.156;8.142;2023-05-29T06:11:21;2.38;;;2.17;;
18100;SDS011;9177;49.156;8.142;2023-05-29T06:13:48;2.35;;;2.15;;
18100;SDS011;9177;49.156;8.142;2023-05-29T06:16:15;2.13;;;1.98;;
18100;SDS011;9177;49.156;8.142;2023-05-29T06:18:42;2.85;;;2.00;;
18100;SDS011;9177;49.156;8.142;2023-05-29T06:21:11;2.50;;;2.30;;
18100;SDS011;9177;49.156;8.142;2023-05-29T06:23:38;2.17;;;1.98;;
18100;SDS011;9177;49.156;8.142;2023-05-29T06:26:06;2.60;;;2.30;;
18100;SDS011;9177;49.156;8.142;2023-05-29T06:28:33;2.40;;;2.20;;
18100;SDS011;9177;49.156;8.142;2023-05-29T06:31:02;2.88;;;2.30;;
18100;SDS011;9177;49.156;8.142;2023-05-29T06:33:29;2.25;;;2.05;;
18100;SDS011;9177;49.156;8.142;2023-05-29T06:35:56;2.45;;;2.25;;
18100;SDS011;9177;49.156;8.142;2023-05-29T06:38:24;2.08;;;1.98;;
18100;SDS011;9177;49.156;8.142;2023-05-29T06:40:51;2.40;;;2.20;;
18100;SDS011;9177;49.156;8.142;2023-05-29T06:43:22;2.75;;;2.10;;
18100;SDS011;9177;49.156;8.142;2023-05-29T06:45:49;2.80;;;2.40;;
18100;SDS011;9177;49.156;8.142;2023-05-29T06:48:16;2.03;;;1.92;;
18100;SDS011;9177;49.156;8.142;2023-05-29T06:50:43;3.33;;;2.38;;
18100;SDS011;9177;49.156;8.142;2023-05-29T06:53:10;2.72;;;2.22;;
18100;SDS011;9177;49.156;8.142;2023-05-29T06:55:38;2.70;;;2.10;;
18100;SDS011;9177;49.156;8.142;2023-05-29T06:58:08;2.60;;;2.30;;
18100;SDS011;9177;49.156;8.142;2023-05-29T07:03:52;2.72;;;2.45;;
18100;SDS011;9177;49.156;8.142;2023-05-29T07:06:19;3.53;;;2.30;;
18100;SDS011;9177;49.156;8.142;2023-05-29T07:08:45;2.80;;;2.50;;
18100;SDS011;9177;49.156;8.142;2023-05-29T07:11:14;2.85;;;2.42;;
18100;SDS011;9177;49.156;8.142;2023-05-29T07:13:40;2.28;;;2.08;;
18100;SDS011;9177;49.156;8.142;2023-05-29T07:16:07;2.72;;;2.53;;
18100;SDS011;9177;49.156;8.142;2023-05-29T07:18:34;4.97;;;2.78;;
18100;SDS011;9177;49.156;8.142;2023-05-29T07:21:04;3.72;;;2.47;;
18100;SDS011;9177;49.156;8.142;2023-05-29T07:23:31;3.40;;;2.45;;
18100;SDS011;9177;49.156;8.142;2023-05-29T07:25:57;3.70;;;2.30;;
18100;SDS011;9177;49.156;8.142;2023-05-29T07:28:26;3.92;;;2.67;;
18100;SDS011;9177;49.156;8.142;2023-05-29T07:30:55;3.00;;;2.40;;
18100;SDS011;9177;49.156;8.142;2023-05-29T07:33:23;2.95;;;2.42;;
18100;SDS011;9177;49.156;8.142;2023-05-29T07:35:50;3.25;;;2.40;;
18100;SDS011;9177;49.156;8.142;2023-05-29T07:38:17;3.75;;;2.50;;
18100;SDS011;9177;49.156;8.142;2023-05-29T07:40:44;3.00;;;2.25;;
18100;SDS011;9177;49.156;8.142;2023-05-29T07:43:10;4.40;;;2.40;;
18100;SDS011;9177;49.156;8.142;2023-05-29T07:45:38;2.33;;;2.13;;
18100;SDS011;9177;49.156;8.142;2023-05-29T07:48:05;3.03;;;2.65;;
18100;SDS011;9177;49.156;8.142;2023-05-29T07:50:32;3.22;;;2.70;;
18100;SDS011;9177;49.156;8.142;2023-05-29T07:52:59;2.50;;;2.30;;
18100;SDS011;9177;49.156;8.142;2023-05-29T07:55:26;2.53;;;2.10;;
18100;SDS011;9177;49.156;8.142;2023-05-29T07:57:53;4.82;;;2.45;;
18100;SDS011;9177;49.156;8.142;2023-05-29T08:00:20;2.92;;;2.40;;
18100;SDS011;9177;49.156;8.142;2023-05-29T08:02:48;2.55;;;2.35;;
18100;SDS011;9177;49.156;8.142;2023-05-29T08:05:16;3.17;;;2.50;;
18100;SDS011;9177;49.156;8.142;2023-05-29T08:07:43;3.60;;;2.60;;
18100;SDS011;9177;49.156;8.142;2023-05-29T08:10:10;4.07;;;2.42;;
18100;SDS011;9177;49.156;8.142;2023-05-29T08:12:37;2.78;;;2.22;;
18100;SDS011;9177;49.156;8.142;2023-05-29T08:15:04;2.83;;;2.20;;
18100;SDS011;9177;49.156;8.142;2023-05-29T08:17:32;5.18;;;2.40;;
18100;SDS011;9177;49.156;8.142;2023-05-29T08:20:01;4.28;;;2.60;;
18100;SDS011;9177;49.156;8.142;2023-05-29T08:22:30;3.67;;;2.50;;
18100;SDS011;9177;49.156;8.142;2023-05-29T08:24:58;5.85;;;3.05;;
18100;SDS011;9177;49.156;8.142;2023-05-29T08:27:26;4.80;;;2.65;;
18100;SDS011;9177;49.156;8.142;2023-05-29T08:29:53;3.08;;;2.58;;
18100;SDS011;9177;49.156;8.142;2023-05-29T08:32:20;6.00;;;2.85;;
18100;SDS011;9177;49.156;8.142;2023-05-29T08:34:47;2.95;;;2.60;;
18100;SDS011;9177;49.156;8.142;2023-05-29T08:37:16;3.25;;;2.85;;
18100;SDS011;9177;49.156;8.142;2023-05-29T08:39:43;3.03;;;2.20;;
18100;SDS011;9177;49.156;8.142;2023-05-29T08:42:12;3.20;;;2.88;;
18100;SDS011;9177;49.156;8.142;2023-05-29T08:44:44;3.17;;;2.67;;
18100;SDS011;9177;49.156;8.142;2023-05-29T08:47:14;3.30;;;2.75;;
18100;SDS011;9177;49.156;8.142;2023-05-29T08:49:45;4.78;;;2.63;;
18100;SDS011;9177;49.156;8.142;2023-05-29T08:52:21;3.30;;;2.30;;
18100;SDS011;9177;49.156;8.142;2023-05-29T08:54:50;3.55;;;2.97;;
18100;SDS011;9177;49.156;8.142;2023-05-29T08:57:18;3.15;;;2.80;;
18100;SDS011;9177;49.156;8.142;2023-05-29T08:59:46;4.80;;;2.40;;
18100;SDS011;9177;49.156;8.142;2023-05-29T09:02:17;3.45;;;2.92;;
18100;SDS011;9177;49.156;8.142;2023-05-29T09:04:45;3.30;;;2.90;;
18100;SDS011;9177;49.156;8.142;2023-05-29T09:07:13;5.10;;;2.92;;
18100;SDS011;9177;49.156;8.142;2023-05-29T09:09:43;4.15;;;2.83;;
18100;SDS011;9177;49.156;8.142;2023-05-29T09:12:15;3.95;;;2.75;;
18100;SDS011;9177;49.156;8.142;2023-05-29T09:14:43;3.72;;;2.45;;
18100;SDS011;9177;49.156;8.142;2023-05-29T09:17:12;5.35;;;3.17;;
18100;SDS011;9177;49.156;8.142;2023-05-29T09:19:40;4.13;;;2.80;;
18100;SDS011;9177;49.156;8.142;2023-05-29T09:22:07;6.10;;;2.80;;
18100;SDS011;9177;49.156;8.142;2023-05-29T09:24:39;3.70;;;2.90;;
18100;SDS011;9177;49.156;8.142;2023-05-29T09:27:07;6.30;;;3.05;;
18100;SDS011;9177;49.156;8.142;2023-05-29T09:29:37;6.43;;;3.33;;
18100;SDS011;9177;49.156;8.142;2023-05-29T09:32:06;3.88;;;3.22;;
18100;SDS011;9177;49.156;8.142;2023-05-29T09:34:33;3.20;;;2.58;;
18100;SDS011;9177;49.156;8.142;2023-05-29T09:37:01;3.53;;;2.60;;
18100;SDS011;9177;49.156;8.142;2023-05-29T09:39:34;4.90;;;2.75;;
18100;SDS011;9177;49.156;8.142;2023-05-29T09:42:12;7.15;;;2.83;;
18100;SDS011;9177;49.156;8.142;2023-05-29T09:44:41;6.35;;;2.95;;
18100;SDS011;9177;49.156;8.142;2023-05-29T09:47:09;4.43;;;2.90;;
18100;SDS011;9177;49.156;8.142;2023-05-29T09:49:40;4.03;;;2.97;;
18100;SDS011;9177;49.156;8.142;2023-05-29T09:52:08;4.03;;;2.75;;
18100;SDS011;9177;49.156;8.142;2023-05-29T09:54:39;5.25;;;2.75;;
18100;SDS011;9177;49.156;8.142;2023-05-29T09:57:11;3.45;;;2.85;;
18100;SDS011;9177;49.156;8.142;2023-05-29T09:59:39;4.47;;;2.63;;
18100;SDS011;9177;49.156;8.142;2023-05-29T10:02:09;3.50;;;2.80;;
18100;SDS011;9177;49.156;8.142;2023-05-29T10:04:37;4.10;;;2.90;;
18100;SDS011;9177;49.156;8.142;2023-05-29T10:07:06;3.95;;;2.72;;
18100;SDS011;9177;49.156;8.142;2023-05-29T10:09:37;4.85;;;3.00;;
18100;SDS011;9177;49.156;8.142;2023-05-29T10:12:08;3.80;;;2.83;;
18100;SDS011;9177;49.156;8.142;2023-05-29T10:14:40;3.58;;;2.65;;
18100;SDS011;9177;49.156;8.142;2023-05-29T10:17:10;3.72;;;2.75;;
18100;SDS011;9177;49.156;8.142;2023-05-29T10:19:40;6.90;;;2.90;;
18100;SDS011;9177;49.156;8.142;2023-05-29T10:22:09;2.85;;;2.63;;
18100;SDS011;9177;49.156;8.142;2023-05-29T10:24:37;3.95;;;2.50;;
18100;SDS011;9177;49.156;8.142;2023-05-29T10:27:04;4.38;;;2.60;;
18100;SDS011;9177;49.156;8.142;2023-05-29T10:29:34;3.55;;;2.65;;
18100;SDS011;9177;49.156;8.142;2023-05-29T10:32:05;5.10;;;2.83;;
18100;SDS011;9177;49.156;8.142;2023-05-29T10:34:43;4.00;;;2.78;;
18100;SDS011;9177;49.156;8.142;2023-05-29T10:37:19;6.50;;;3.10;;
18100;SDS011;9177;49.156;8.142;2023-05-29T10:39:52;5.47;;;2.88;;
18100;SDS011;9177;49.156;8.142;2023-05-29T10:45:47;3.78;;;2.70;;
18100;SDS011;9177;49.156;8.142;2023-05-29T10:51:06;5.38;;;2.78;;
18100;SDS011;9177;49.156;8.142;2023-05-29T10:53:34;5.07;;;3.00;;
18100;SDS011;9177;49.156;8.142;2023-05-29T10:56:07;4.35;;;3.05;;
18100;SDS011;9177;49.156;8.142;2023-05-29T10:58:40;3.95;;;2.88;;
18100;SDS011;9177;49.156;8.142;2023-05-29T11:01:09;7.53;;;3.40;;
18100;SDS011;9177;49.156;8.142;2023-05-29T11:03:36;9.05;;;3.00;;
18100;SDS011;9177;49.156;8.142;2023-05-29T11:06:04;7.85;;;3.25;;
18100;SDS011;9177;49.156;8.142;2023-05-29T11:08:33;14.77;;;5.28;;
18100;SDS011;9177;49.156;8.142;2023-05-29T11:11:01;14.88;;;4.75;;
18100;SDS011;9177;49.156;8.142;2023-05-29T11:13:31;19.25;;;4.63;;
18100;SDS011;9177;49.156;8.142;2023-05-29T11:16:13;15.65;;;4.13;;
18100;SDS011;9177;49.156;8.142;2023-05-29T11:18:46;11.40;;;3.65;;
18100;SDS011;9177;49.156;8.142;2023-05-29T11:21:22;14.68;;;4.57;;
18100;SDS011;9177;49.156;8.142;2023-05-29T11:23:52;11.48;;;3.60;;
18100;SDS011;9177;49.156;8.142;2023-05-29T11:26:19;15.02;;;3.95;;
18100;SDS011;9177;49.156;8.142;2023-05-29T11:28:48;13.75;;;4.20;;
18100;SDS011;9177;49.156;8.142;2023-05-29T11:31:16;12.15;;;3.30;;
18100;SDS011;9177;49.156;8.142;2023-05-29T11:33:48;18.38;;;4.07;;
18100;SDS011;9177;49.156;8.142;2023-05-29T11:36:17;12.45;;;4.15;;
18100;SDS011;9177;49.156;8.142;2023-05-29T11:38:47;15.98;;;4.28;;
18100;SDS011;9177;49.156;8.142;2023-05-29T11:41:14;16.90;;;4.32;;
18100;SDS011;9177;49.156;8.142;2023-05-29T11:43:43;12.63;;;3.65;;
18100;SDS011;9177;49.156;8.142;2023-05-29T11:46:18;12.52;;;4.05;;
18100;SDS011;9177;49.156;8.142;2023-05-29T11:48:51;9.07;;;3.67;;
18100;SDS011;9177;49.156;8.142;2023-05-29T11:51:18;7.78;;;3.50;;
18100;SDS011;9177;49.156;8.142;2023-05-29T11:53:46;10.32;;;3.47;;
18100;SDS011;9177;49.156;8.142;2023-05-29T11:56:13;10.43;;;3.35;;
18100;SDS011;9177;49.156;8.142;2023-05-29T11:58:41;9.65;;;3.60;;
18100;SDS011;9177;49.156;8.142;2023-05-29T12:01:09;13.50;;;3.60;;
18100;SDS011;9177;49.156;8.142;2023-05-29T12:03:40;7.47;;;3.53;;
18100;SDS011;9177;49.156;8.142;2023-05-29T12:06:08;13.32;;;3.90;;
18100;SDS011;9177;49.156;8.142;2023-05-29T12:08:36;11.30;;;3.88;;
18100;SDS011;9177;49.156;8.142;2023-05-29T12:11:03;8.32;;;3.63;;
18100;SDS011;9177;49.156;8.142;2023-05-29T12:13:31;8.55;;;3.60;;
18100;SDS011;9177;49.156;8.142;2023-05-29T12:15:59;8.38;;;3.53;;
18100;SDS011;9177;49.156;8.142;2023-05-29T12:18:27;8.13;;;3.92;;
18100;SDS011;9177;49.156;8.142;2023-05-29T12:21:02;10.10;;;3.72;;
18100;SDS011;9177;49.156;8.142;2023-05-29T12:23:30;5.78;;;3.25;;
18100;SDS011;9177;49.156;8.142;2023-05-29T12:25:57;8.88;;;3.30;;
18100;SDS011;9177;49.156;8.142;2023-05-29T12:28:25;6.20;;;3.65;;
18100;SDS011;9177;49.156;8.142;2023-05-29T12:30:57;6.28;;;3.08;;
18100;SDS011;9177;49.156;8.142;2023-05-29T12:33:28;8.45;;;3.47;;
18100;SDS011;9177;49.156;8.142;2023-05-29T12:36:04;7.90;;;3.40;;
18100;SDS011;9177;49.156;8.142;2023-05-29T12:38:32;5.47;;;3.45;;
18100;SDS011;9177;49.156;8.142;2023-05-29T12:41:01;9.38;;;3.35;;
18100;SDS011;9177;49.156;8.142;2023-05-29T12:43:28;10.23;;;3.08;;
18100;SDS011;9177;49.156;8.142;2023-05-29T12:45:55;7.18;;;2.80;;
18100;SDS011;9177;49.156;8.142;2023-05-29T12:48:25;8.27;;;3.25;;
18100;SDS011;9177;49.156;8.142;2023-05-29T12:50:53;10.90;;;3.42;;
18100;SDS011;9177;49.156;8.142;2023-05-29T12:53:22;8.85;;;3.45;;
18100;SDS011;9177;49.156;8.142;2023-05-29T12:55:55;8.43;;;3.30;;
18100;SDS011;9177;49.156;8.142;2023-05-29T12:58:22;9.85;;;3.30;;
18100;SDS011;9177;49.156;8.142;2023-05-29T13:00:52;10.68;;;3.50;;
18100;SDS011;9177;49.156;8.142;2023-05-29T13:03:21;11.75;;;3.65;;
18100;SDS011;9177;49.156;8.142;2023-05-29T13:05:49;12.23;;;3.30;;
18100;SDS011;9177;49.156;8.142;2023-05-29T13:08:16;7.95;;;3.35;;
18100;SDS011;9177;49.156;8.142;2023-05-29T13:10:45;6.53;;;3.47;;
18100;SDS011;9177;49.156;8.142;2023-05-29T13:13:11;11.48;;;3.67;;
18100;SDS011;9177;49.156;8.142;2023-05-29T13:15:38;5.50;;;2.88;;
18100;SDS011;9177;49.156;8.142;2023-05-29T13:18:06;10.65;;;3.38;;
18100;SDS011;9177;49.156;8.142;2023-05-29T13:20:33;7.95;;;3.63;;
18100;SDS011;9177;49.156;8.142;2023-05-29T13:23:00;7.40;;;3.42;;
18100;SDS011;9177;49.156;8.142;2023-05-29T13:25:26;8.98;;;3.50;;
18100;SDS011;9177;49.156;8.142;2023-05-29T13:27:55;5.15;;;3.30;;
18100;SDS011;9177;49.156;8.142;2023-05-29T13:30:22;5.30;;;2.92;;
18100;SDS011;9177;49.156;8.142;2023-05-29T13:32:49;9.55;;;3.25;;
18100;SDS011;9177;49.156;8.142;2023-05-29T13:35:17;6.88;;;3.28;;
18100;SDS011;9177;49.156;8.142;2023-05-29T13:37:44;10.27;;;4.07;;
18100;SDS011;9177;49.156;8.142;2023-05-29T13:40:11;10.82;;;3.60;;
18100;SDS011;9177;49.156;8.142;2023-05-29T13:42:38;8.32;;;3.70;;
18100;SDS011;9177;49.156;8.142;2023-05-29T13:45:07;8.02;;;3.97;;
18100;SDS011;9177;49.156;8.142;2023-05-29T13:47:35;8.88;;;3.95;;
18100;SDS011;9177;49.156;8.142;2023-05-29T13:50:02;10.75;;;4.03;;
18100;SDS011;9177;49.156;8.142;2023-05-29T13:52:30;8.20;;;3.38;;
18100;SDS011;9177;49.156;8.142;2023-05-29T13:54:57;8.40;;;3.83;;
18100;SDS011;9177;49.156;8.142;2023-05-29T13:57:26;7.88;;;3.88;;
18100;SDS011;9177;49.156;8.142;2023-05-29T13:59:54;8.75;;;3.80;;
18100;SDS011;9177;49.156;8.142;2023-05-29T14:02:23;6.90;;;3.30;;
18100;SDS011;9177;49.156;8.142;2023-05-29T14:04:50;8.98;;;3.50;;
18100;SDS011;9177;49.156;8.142;2023-05-29T14:07:17;10.02;;;3.50;;
18100;SDS011;9177;49.156;8.142;2023-05-29T14:09:44;5.90;;;3.25;;
18100;SDS011;9177;49.156;8.142;2023-05-29T14:12:11;10.32;;;3.53;;
18100;SDS011;9177;49.156;8.142;2023-05-29T14:14:38;7.05;;;3.10;;
18100;SDS011;9177;49.156;8.142;2023-05-29T14:17:05;6.40;;;3.10;;
18100;SDS011;9177;49.156;8.142;2023-05-29T14:19:36;7.30;;;3.13;;
18100;SDS011;9177;49.156;8.142;2023-05-29T14:22:03;6.82;;;3.53;;
18100;SDS011;9177;49.156;8.142;2023-05-29T14:24:30;7.57;;;3.45;;
18100;SDS011;9177;49.156;8.142;2023-05-29T14:26:57;6.28;;;3.15;;
18100;SDS011;9177;49.156;8.142;2023-05-29T14:29:24;6.35;;;3.08;;
18100;SDS011;9177;49.156;8.142;2023-05-29T14:31:52;7.63;;;3.03;;
18100;SDS011;9177;49.156;8.142;2023-05-29T14:34:19;5.55;;;2.90;;
18100;SDS011;9177;49.156;8.142;2023-05-29T14:36:48;6.60;;;3.13;;
18100;SDS011;9177;49.156;8.142;2023-05-29T14:39:15;5.20;;;2.83;;
18100;SDS011;9177;49.156;8.142;2023-05-29T14:41:42;7.05;;;3.00;;
18100;SDS011;9177;49.156;8.142;2023-05-29T14:44:09;6.30;;;3.20;;
18100;SDS011;9177;49.156;8.142;2023-05-29T14:46:37;6.10;;;2.80;;
18100;SDS011;9177;49.156;8.142;2023-05-29T14:49:04;8.38;;;3.63;;
18100;SDS011;9177;49.156;8.142;2023-05-29T14:51:31;7.00;;;3.13;;
18100;SDS011;9177;49.156;8.142;2023-05-29T14:54:00;4.10;;;2.47;;
18100;SDS011;9177;49.156;8.142;2023-05-29T14:56:27;4.47;;;2.78;;
18100;SDS011;9177;49.156;8.142;2023-05-29T14:58:54;8.30;;;3.13;;
18100;SDS011;9177;49.156;8.142;2023-05-29T15:01:21;6.20;;;2.90;;
18100;SDS011;9177;49.156;8.142;2023-05-29T15:03:50;7.93;;;3.20;;
18100;SDS011;9177;49.156;8.142;2023-05-29T15:06:17;5.82;;;3.08;;
18100;SDS011;9177;49.156;8.142;2023-05-29T15:08:44;3.97;;;2.70;;
18100;SDS011;9177;49.156;8.142;2023-05-29T15:11:16;5.75;;;2.80;;
18100;SDS011;9177;49.156;8.142;2023-05-29T15:13:44;10.13;;;3.20;;
18100;SDS011;9177;49.156;8.142;2023-05-29T15:16:11;8.93;;;2.90;;